Kezdőlap
METAR-TAF:

METAR-TAF

Repülőterek :

Csengtu, Kína

földrajzi szélesség: 30-40N, földrajzi hosszúság: 104-01E, magasság: 508 m

Jelenlegi meteorológiai megfigyelések

A jelentés 38 perccel ezelõtt készült, 15:00 UTC
Különbözõ irányokból fújó szél 2 kt
Hőmérséklet 9°C
Páratartalom 53%
Légköri nyomás 1025 hPa
Látótávolság 10 km, vagy több
felhőtlen 1500 m magasságban, és nincs gomolyfelhõ

METAR: ZUUU 251500Z VRB01MPS CAVOK 09/00 Q1025 NOSIG

Idő: 23:38 (15:38 UTC)

Előrejelzés

A jelentés 7 órával és 36 perccel ezelõtt készült, 08:02 UTC
Az előrejelzés 25-én 12 óra UTC és 26-én 12 óra UTC között érvényes
Észak-északkeleti szél 6 kt
Látótávolság: 5000 m
Szórványos felhőzet 5000 lábon
Párásság

TAF: ZUUU 250802Z 2512/2612 02003MPS 5000 BR SCT050 TX10/2607Z TN06/2523Z

Meteorológiai megfigyelések és előrejelzések több, mint 4000 repülőtéren (METAR és TAF jelentéseket).

A térképen piros és sárga pontok jelzik az elérhető meteorológiai állomásokat.

Mozgassa az egeret a pont fölött, hogy megjelenjen az állomás neve.

Azután kattintson az időjárási megfigyelések és előrejelzések megtekintéséhez.

A térkép megváltoztatása: kattintson a fekete keresztel jelölt zöld gombra ráközelítéshez, a vonallal jelölt zöld gombra távolításhoz, vagy a zöld nyilakra a szomszédos térképek eléréséhez.


METAR-TAF: